WetterOnline ( http://www.wetteronline.de )

Wetter aktuell Kläden

Aktuelles Wetter: Seehausen (23m)

6-stündlich | Neueste Meldungen
Ortszeit Temperatur Wetter
Sa, 25.04. 14:00 20.3° C leicht bewölkt
Sa, 25.04. 8:00 10.5° C wolkig
Sa, 25.04. 2:00 6.8° C leicht bewölkt
Fr, 24.04. 20:00 17.8° C fast wolkenlos
Ortszeit Temperatur Wetter
Sa, 25.04. 14:00 20.3° C leicht bewölkt
Sa, 25.04. 13:30 20.3° C wolkig
Sa, 25.04. 13:00 19.2° C wolkig
Sa, 25.04. 12:30 18.4° C wolkig
Sa, 25.04. 12:00 17.6° C wolkig
Sa, 25.04. 11:30 15.9° C wolkig, nach Regen
Ortszeit Relative Feuchte Sichtweite
Sa, 25.04. 14:00 46% 20 km
Sa, 25.04. 8:00 73% 10 km
Sa, 25.04. 2:00 83% 10 km
Fr, 24.04. 20:00 42% 13 km
Ortszeit Relative Feuchte Sichtweite
Sa, 25.04. 14:00 46% 20 km
Sa, 25.04. 13:30 45% 20 km
Sa, 25.04. 13:00 47% 20 km
Sa, 25.04. 12:30 47% 18 km
Sa, 25.04. 12:00 51% 15 km
Sa, 25.04. 11:30 61% 15 km
Ortszeit Niederschlagsmenge Niederschlagsart
Sa, 25.04. 14:00 0.05 l/m2 in 6 Std. Regen
Sa, 25.04. 8:00 0,0 l/m2 in 12 Std. -
Sa, 25.04. 2:00 0,0 l/m2 in 6 Std. -
Fr, 24.04. 20:00 0,0 l/m2 in 12 Std. -
Ortszeit Niederschlagsmenge Niederschlagsart
Sa, 25.04. 14:00 0,0 l/m2 in 1 Std. Regen
Sa, 25.04. 13:30 keine Meldung -
Sa, 25.04. 13:00 0,0 l/m2 in 1 Std. -
Sa, 25.04. 12:30 keine Meldung -
Sa, 25.04. 12:00 0,0 l/m2 in 1 Std. -
Sa, 25.04. 11:30 keine Meldung -
Ortszeit Stärke Spitze Richtung
km/h Bft. km/h Grad Sektor
Sa, 25.04. 14:00 11 2 22 230° SW
Sa, 25.04. 8:00 7 2 11 150° SO
Sa, 25.04. 2:00 4 1 7 150° SO
Fr, 24.04. 20:00 7 2 18 230° SW
Ortszeit Stärke Spitze Richtung
km/h Bft. km/h Grad Sektor
Sa, 25.04. 14:00 11 2 22 230° SW
Sa, 25.04. 13:30 13 3 22 230° SW
Sa, 25.04. 13:00 14 3 18 210° SW
Sa, 25.04. 12:30 11 2 18 210° SW
Sa, 25.04. 12:00 11 2 14 230° SW
Sa, 25.04. 11:30 6 1 9 190° S
Ortszeit Untergrenze Bedeckung Gattung
total tief tief mittel hoch
Sa, 25.04. 14:00 1200 m 8/8 1/8 Cu - Cs
Sa, 25.04. 8:00 1800 m 7/8 4/8 Sc As -
Sa, 25.04. 2:00 6000 m 4/8 0/8 - - Ci
Fr, 24.04. 20:00 9000 m 1/8 0/8 - - Ci
Ortszeit Bedeckungsgrad in Achtel und Wolkenuntergrenze
Sa, 25.04. 14:00 1(1200m)
Sa, 25.04. 13:30 2(2700m) 8(4800m)
Sa, 25.04. 13:00 4(2400m) 8(4800m)
Sa, 25.04. 12:30 3(2400m) 8(4800m)
Sa, 25.04. 12:00 5(2400m) 8(3600m)
Sa, 25.04. 11:30 2(1500m) 5(3000m) 8(3600m)
Ortszeit Luftdruck NN (hPa) Tendenz (hPa in 3 Std.)
Sa, 25.04. 14:00 1007 - 1,6
Sa, 25.04. 8:00 1008 - 0,4
Sa, 25.04. 2:00 1009 - 0,6
Fr, 24.04. 20:00 1010 - 0,7
Ortszeit Luftdruck NN (hPa) Tendenz (hPa in 3 Std.)
Sa, 25.04. 14:00 1007 - 1,6
Sa, 25.04. 13:30 1007 - 1,4
Sa, 25.04. 13:00 1007 - 1,2
Sa, 25.04. 12:30 1007 - 0,8
Sa, 25.04. 12:00 1008 - 0,4
Sa, 25.04. 11:30 1008 + 0,1
Ortszeit Schneehöhe (cm)
Sa, 25.04. 14:00 -
Sa, 25.04. 8:00 -
Sa, 25.04. 2:00 -
Fr, 24.04. 20:00 -
Ortszeit Schneehöhe (cm)
Sa, 25.04. 14:00 -
Sa, 25.04. 13:30 -
Sa, 25.04. 13:00 -
Sa, 25.04. 12:30 -
Sa, 25.04. 12:00 -
Sa, 25.04. 11:30 -
Link zu dieser Seite / Seite empfehlen

Das Wetter in ...